Terminal Aerodrome Forecast
Issued by NWS Quad Cities IA IL

Home | Current Version | Previous Version | Text Only | Print | Product List | Glossary On
Versions: 1 2 3 4 5 6 7 8 9 10 11 12 13 14 15 16 17 18 19 20 21 22 23 24 25 26 27 28 29 30
000
FTUS43 KDVN 292325
TAFMLI
TAF
KMLI 292325Z 3000/3024 07009KT P6SM OVC025
     FM300300 07012KT P6SM BKN035
     FM301100 08016G23KT P6SM VCSH OVC025
     FM301300 08018G25KT 3SM RA BR SCT008 OVC015
     FM301900 07016G23KT 5SM BR VCSH OVC008=

USA.gov is the U.S. government's official web portal to all federal, state and local government web resources and services.